Time;durP1;ratioP1;P1;durP2;ratioP2;P2;SDS_P1;SDS_P2;PMS_P1;PMS_P2;Temp;Humidity;BMP_temperature;BMP_pressure;BME280_temperature;BME280_humidity;BME280_pressure;Samples;Min_cycle;Max_cycle;Signal;HPM_P1;HPM_P2
2022/05/13 00:00:20;;;;;;;25.52;10.95;;;;;;;15.45;77.26;99377.91;1731041;82;21095;-75
2022/05/13 00:02:47;;;;;;;17.20;10.05;;;;;;;15.42;77.16;99389.73;1708853;82;20996;-72
2022/05/13 00:05:15;;;;;;;32.23;10.28;;;;;;;15.37;76.89;99389.38;1774866;80;21064;-74
2022/05/13 00:07:47;;;;;;;21.95;10.03;;;;;;;15.35;76.86;99390.92;1772690;80;21023;-80
2022/05/13 00:10:14;;;;;;;23.83;10.18;;;;;;;15.32;76.75;99396.02;1722859;82;21039;-80
2022/05/13 00:12:42;;;;;;;29.70;10.40;;;;;;;15.28;76.65;99399.29;1728293;82;21560;-78
2022/05/13 00:15:14;;;;;;;23.32;9.93;;;;;;;15.18;76.48;99405.34;1706209;83;21653;-81
2022/05/13 00:17:43;;;;;;;23.95;11.05;;;;;;;15.12;76.19;99396.46;1707316;83;21053;-76
2022/05/13 00:20:11;;;;;;;24.92;9.95;;;;;;;15.07;76.34;99395.33;1694259;84;21018;-78
2022/05/13 00:22:50;;;;;;;22.87;11.22;;;;;;;15.02;76.33;99395.58;1699076;84;21023;-74
2022/05/13 00:25:21;;;;;;;21.70;8.88;;;;;;;14.99;76.54;99404.05;1738712;82;21025;-76
2022/05/13 00:27:48;;;;;;;23.12;8.95;;;;;;;14.89;76.53;99407.31;1777196;80;21176;-78
2022/05/13 00:30:19;;;;;;;20.43;8.43;;;;;;;14.76;76.80;99410.09;1723132;82;21118;-79
2022/05/13 00:32:49;;;;;;;19.20;8.23;;;;;;;14.70;76.92;99409.55;1765340;80;21099;-79
2022/05/13 00:35:17;;;;;;;17.90;7.80;;;;;;;14.65;76.70;99418.68;1739755;82;21065;-83
2022/05/13 00:37:44;;;;;;;17.62;8.40;;;;;;;14.55;76.94;99420.77;1777391;80;21532;-77
2022/05/13 00:40:11;;;;;;;19.52;8.08;;;;;;;14.47;76.95;99420.32;1739996;82;20948;-80
2022/05/13 00:42:42;;;;;;;23.40;8.20;;;;;;;14.42;77.23;99416.40;1738596;82;21614;-78
2022/05/13 00:45:15;;;;;;;23.95;8.68;;;;;;;14.35;77.52;99420.58;1777402;80;21504;-73
2022/05/13 00:47:44;;;;;;;19.77;8.03;;;;;;;14.32;77.57;99425.44;1739002;82;21049;-80
2022/05/13 00:50:16;;;;;;;15.55;8.23;;;;;;;14.28;77.66;99432.81;1777323;80;20984;-79
2022/05/13 00:52:48;;;;;;;23.30;8.25;;;;;;;14.29;77.74;99436.41;1719474;82;20996;-81
2022/05/13 00:55:31;;;;;;;18.77;8.63;;;;;;;14.29;77.84;99437.22;1773769;80;21513;-80
2022/05/13 00:58:04;;;;;;;23.95;7.90;;;;;;;14.31;77.89;99431.33;1771507;80;20997;-83
2022/05/13 01:00:35;;;;;;;21.82;7.97;;;;;;;14.28;77.28;99438.95;1739557;82;21096;-79
2022/05/13 01:03:06;;;;;;;18.10;7.55;;;;;;;14.23;76.98;99433.86;1777417;80;21212;-80
2022/05/13 01:05:39;;;;;;;17.73;8.30;;;;;;;14.20;77.09;99437.90;1739546;82;21057;-79
2022/05/13 01:08:07;;;;;;;22.30;7.22;;;;;;;14.14;76.57;99439.30;1774028;80;21535;-77
2022/05/13 01:10:36;;;;;;;19.02;6.50;;;;;;;14.11;76.62;99440.78;1739361;82;21017;-77
2022/05/13 01:13:07;;;;;;;19.30;7.00;;;;;;;14.02;76.34;99442.88;1776866;80;20984;-79
2022/05/13 01:15:35;;;;;;;19.85;7.90;;;;;;;13.95;76.36;99447.03;1776942;80;21433;-79
2022/05/13 01:18:08;;;;;;;19.27;6.67;;;;;;;13.88;76.41;99438.48;1773515;80;20977;-77
2022/05/13 01:20:51;;;;;;;15.93;6.25;;;;;;;13.87;76.73;99440.42;1739948;82;21049;-79
2022/05/13 01:23:25;;;;;;;13.28;5.47;;;;;;;13.81;75.69;99433.51;1777710;79;21056;-78
2022/05/13 01:25:58;;;;;;;12.60;5.15;;;;;;;13.75;75.37;99435.68;1738388;82;21057;-77
2022/05/13 01:28:31;;;;;;;10.35;4.62;;;;;;;13.74;75.15;99432.69;1776914;80;21156;-78
2022/05/13 01:31:00;;;;;;;13.22;5.10;;;;;;;13.67;74.72;99446.28;1776294;79;21052;-80
2022/05/13 01:33:29;;;;;;;14.25;5.92;;;;;;;13.65;74.87;99441.66;1739090;82;21068;-78
2022/05/13 01:36:00;;;;;;;12.47;4.58;;;;;;;13.62;74.76;99450.66;1729655;82;21501;-79
2022/05/13 01:38:35;;;;;;;12.10;5.37;;;;;;;13.56;74.54;99450.05;1708497;83;21073;-78
2022/05/13 01:41:09;;;;;;;18.32;6.05;;;;;;;13.49;74.71;99450.58;1708673;82;21203;-79
2022/05/13 01:43:38;;;;;;;12.35;4.70;;;;;;;13.42;74.60;99448.97;1708887;83;21485;-72
2022/05/13 01:46:06;;;;;;;9.48;4.78;;;;;;;13.34;74.58;99449.27;1706513;83;21029;-79
2022/05/13 01:48:39;;;;;;;10.43;5.03;;;;;;;13.26;74.23;99454.32;1707631;83;21518;-79
2022/05/13 01:51:08;;;;;;;14.55;6.10;;;;;;;13.21;74.32;99449.81;1705984;83;21052;-79
2022/05/13 01:53:39;;;;;;;10.45;5.33;;;;;;;13.21;74.76;99455.34;1776368;80;21083;-79
2022/05/13 01:56:07;;;;;;;14.83;5.62;;;;;;;13.27;74.87;99451.20;1735947;82;21077;-76
2022/05/13 01:58:36;;;;;;;12.37;5.70;;;;;;;13.32;74.90;99457.12;1773634;80;21051;-79
2022/05/13 02:01:06;;;;;;;12.75;5.53;;;;;;;13.33;74.68;99462.88;1735906;82;21061;-78
2022/05/13 02:03:46;;;;;;;8.20;5.08;;;;;;;13.30;74.87;99460.80;1776913;80;21567;-80
2022/05/13 02:06:22;;;;;;;12.53;5.45;;;;;;;13.25;74.79;99463.78;1774963;80;21953;-77
2022/05/13 02:08:51;;;;;;;9.05;4.47;;;;;;;13.17;74.68;99452.22;1774564;80;21004;-77
2022/05/13 02:11:21;;;;;;;10.30;4.85;;;;;;;13.11;75.00;99462.11;1776788;80;21016;-77
2022/05/13 02:13:51;;;;;;;10.18;4.15;;;;;;;13.08;75.37;99461.41;1725029;82;21531;-79
2022/05/13 02:16:20;;;;;;;11.88;3.75;;;;;;;13.05;75.53;99464.83;1717785;82;21020;-72
2022/05/13 02:18:51;;;;;;;8.53;4.12;;;;;;;13.04;75.75;99470.14;1736535;82;21994;-78
2022/05/13 02:21:18;;;;;;;12.33;3.92;;;;;;;13.04;76.08;99472.91;1709687;83;21036;-78
2022/05/13 02:23:47;;;;;;;9.25;3.85;;;;;;;13.06;76.09;99476.70;1739098;82;21107;-79
2022/05/13 02:26:16;;;;;;;8.33;3.67;;;;;;;13.09;75.92;99482.94;1774719;80;20973;-78
2022/05/13 02:28:43;;;;;;;7.20;3.85;;;;;;;13.08;75.59;99478.57;1734804;82;21550;-78
2022/05/13 02:31:12;;;;;;;13.62;4.12;;;;;;;13.05;75.20;99481.42;1776793;80;21017;-78
2022/05/13 02:33:41;;;;;;;8.05;3.22;;;;;;;13.01;75.26;99481.88;1777006;80;20977;-79
2022/05/13 02:36:10;;;;;;;8.10;4.47;;;;;;;12.95;75.47;99490.94;1777534;80;21457;-79
2022/05/13 02:38:41;;;;;;;9.05;3.27;;;;;;;12.95;75.74;99486.00;1776566;79;21106;-80
2022/05/13 02:41:13;;;;;;;9.78;3.80;;;;;;;12.96;75.64;99486.23;1777234;80;21020;-77
2022/05/13 02:43:51;;;;;;;12.30;4.17;;;;;;;12.98;75.40;99483.94;1740053;82;21522;-79
2022/05/13 02:46:22;;;;;;;6.78;3.60;;;;;;;12.94;75.08;99490.71;1776794;80;21027;-79
2022/05/13 02:48:52;;;;;;;11.77;3.83;;;;;;;12.93;75.22;99493.22;1772347;79;20980;-78
2022/05/13 02:51:29;;;;;;;9.75;3.83;;;;;;;12.89;75.22;99489.53;1720384;83;21713;-76
2022/05/13 02:53:56;;;;;;;7.75;3.22;;;;;;;12.87;75.06;99497.34;1721780;82;20996;-78
2022/05/13 02:56:30;;;;;;;11.88;3.75;;;;;;;12.86;75.03;99492.97;1735980;82;21558;-77
2022/05/13 02:58:58;;;;;;;9.80;5.08;;;;;;;12.81;75.14;99491.19;1708836;83;21132;-75
2022/05/13 03:01:25;;;;;;;14.70;4.10;;;;;;;12.77;75.35;99493.03;1707630;84;21454;-80
2022/05/13 03:03:53;;;;;;;13.93;3.90;;;;;;;12.74;75.86;99496.47;1701924;83;21013;-79
2022/05/13 03:06:20;;;;;;;13.15;3.98;;;;;;;12.77;76.05;99492.47;1777434;80;21075;-71
2022/05/13 03:08:47;;;;;;;7.45;4.55;;;;;;;12.81;76.04;99498.70;1740079;82;21195;-78
2022/05/13 03:11:20;;;;;;;8.48;4.15;;;;;;;12.83;76.06;99504.12;1707400;83;21041;-77
2022/05/13 03:13:50;;;;;;;8.28;4.03;;;;;;;12.88;75.93;99501.75;1699249;83;21022;-78
2022/05/13 03:16:21;;;;;;;6.08;3.25;;;;;;;12.88;75.92;99506.69;1777562;80;21016;-76
2022/05/13 03:18:52;;;;;;;9.65;4.53;;;;;;;12.88;76.08;99506.69;1727843;82;21564;-79
2022/05/13 03:21:20;;;;;;;7.55;4.33;;;;;;;12.97;76.22;99505.25;1707240;83;21104;-79
2022/05/13 03:23:50;;;;;;;13.25;4.45;;;;;;;13.09;75.82;99509.22;1777509;80;21004;-78
2022/05/13 03:26:19;;;;;;;12.18;4.35;;;;;;;13.17;75.58;99513.08;1739983;82;21101;-80
2022/05/13 03:28:47;;;;;;;12.43;4.58;;;;;;;13.30;75.54;99514.76;1694014;84;20985;-80
2022/05/13 03:31:14;;;;;;;11.15;4.62;;;;;;;13.44;75.34;99517.22;1719264;83;21009;-78
2022/05/13 03:33:44;;;;;;;13.20;5.28;;;;;;;13.58;74.92;99515.58;1735307;82;21052;-79
2022/05/13 03:36:12;;;;;;;11.85;5.80;;;;;;;13.68;74.56;99519.08;1727494;82;21693;-79
2022/05/13 03:38:47;;;;;;;14.50;5.30;;;;;;;13.75;74.13;99521.52;1774969;80;20989;-77
2022/05/13 03:41:14;;;;;;;15.78;5.85;;;;;;;13.82;73.77;99522.34;1739953;82;21005;-79
2022/05/13 03:43:43;;;;;;;12.58;5.65;;;;;;;13.91;73.35;99529.74;1705572;83;21046;-77
2022/05/13 03:46:13;;;;;;;22.13;8.50;;;;;;;13.97;72.94;99527.01;1745764;82;21296;-76
2022/05/13 03:48:46;;;;;;;16.73;7.35;;;;;;;13.99;72.34;99527.45;1708901;83;21013;-77
2022/05/13 03:51:16;;;;;;;19.52;8.70;;;;;;;13.91;72.63;99526.97;1777153;79;21039;-75
2022/05/13 03:53:49;;;;;;;19.67;9.15;;;;;;;13.92;73.05;99526.63;1773547;80;21758;-80
2022/05/13 03:56:19;;;;;;;28.80;10.93;;;;;;;13.98;73.14;99530.00;1724719;82;21063;-78
2022/05/13 03:58:49;;;;;;;23.70;10.00;;;;;;;14.06;73.02;99528.27;1736577;82;21039;-79
2022/05/13 04:01:20;;;;;;;26.45;9.83;;;;;;;14.11;72.96;99535.80;1713991;83;21052;-76
2022/05/13 04:03:49;;;;;;;25.92;10.63;;;;;;;14.17;72.91;99541.93;1702276;84;21037;-77
2022/05/13 04:09:05;;;;;;;22.40;10.18;;;;;;;14.24;73.11;99544.92;1776083;80;21521;-76
2022/05/13 04:11:40;;;;;;;32.83;11.45;;;;;;;14.29;73.37;99548.06;1777359;80;22010;-77
2022/05/13 04:16:57;;;;;;;26.55;11.63;;;;;;;14.39;73.42;99551.52;1774715;80;21001;-80
2022/05/13 04:19:29;;;;;;;27.35;11.90;;;;;;;14.44;73.37;99555.45;1769704;80;20989;-77
2022/05/13 04:21:58;;;;;;;24.85;12.35;;;;;;;14.50;73.45;99559.61;1724626;82;21047;-78
2022/05/13 04:24:27;;;;;;;34.23;12.03;;;;;;;14.56;73.25;99561.02;1777116;80;21701;-78
2022/05/13 04:26:56;;;;;;;34.60;13.00;;;;;;;14.59;73.04;99557.55;1724914;82;20968;-78
2022/05/13 04:29:23;;;;;;;33.92;11.93;;;;;;;14.62;73.04;99560.78;1739838;82;21665;-79
2022/05/13 04:31:51;;;;;;;23.52;12.40;;;;;;;14.66;73.03;99560.30;1711246;83;21024;-78
2022/05/13 04:34:22;;;;;;;23.55;11.97;;;;;;;14.70;72.99;99555.12;1711449;83;21001;-79
2022/05/13 04:36:53;;;;;;;25.62;11.25;;;;;;;14.76;72.67;99554.86;1713915;83;21554;-77
2022/05/13 04:39:20;;;;;;;33.55;12.58;;;;;;;14.80;72.27;99554.41;1712632;82;21029;-78
2022/05/13 04:44:39;;;;;;;28.05;12.78;;;;;;;14.90;71.82;99562.30;1686982;83;20994;-79
2022/05/13 04:48:15;;;;;;;31.25;12.60;;;;;;;15.00;71.21;99569.33;1708822;83;21031;-76
2022/05/13 04:49:40;;;;;;;34.08;11.05;;;;;;;15.07;70.61;99563.19;1721615;82;20988;-76
2022/05/13 04:52:09;;;;;;;28.27;11.80;;;;;;;15.12;70.25;99560.74;1739808;82;21052;-77
2022/05/13 04:54:37;;;;;;;20.70;10.28;;;;;;;15.17;70.10;99566.05;1738195;81;21072;-77
2022/05/13 04:57:05;;;;;;;25.52;10.45;;;;;;;15.22;69.75;99564.42;1707862;83;20996;-75
2022/05/13 04:59:34;;;;;;;31.57;9.30;;;;;;;15.22;69.41;99557.48;1706069;83;21032;-77
2022/05/13 05:02:07;;;;;;;17.87;7.95;;;;;;;15.27;69.05;99568.95;1777279;80;21048;-75
2022/05/13 05:04:41;;;;;;;14.85;7.40;;;;;;;15.26;68.39;99568.70;1776954;80;21036;-77
2022/05/13 05:07:12;;;;;;;19.23;7.62;;;;;;;15.29;68.41;99557.70;1776424;80;21007;-77
2022/05/13 05:09:41;;;;;;;17.30;8.23;;;;;;;15.34;68.25;99562.19;1775876;80;20985;-78
2022/05/13 05:12:15;;;;;;;21.55;9.40;;;;;;;15.37;68.20;99562.09;1777368;80;21008;-76
2022/05/13 05:14:45;;;;;;;18.55;8.40;;;;;;;15.41;68.44;99565.19;1777151;80;21828;-78
2022/05/13 05:17:13;;;;;;;22.32;8.85;;;;;;;15.45;68.38;99572.23;1773308;80;21021;-76
2022/05/13 05:19:42;;;;;;;25.40;9.55;;;;;;;15.48;68.85;99570.14;1736702;82;21056;-78
2022/05/13 05:22:10;;;;;;;22.07;8.55;;;;;;;15.57;68.66;99573.56;1751495;81;21024;-77
2022/05/13 05:24:42;;;;;;;28.20;9.45;;;;;;;15.68;69.00;99578.05;1768406;80;21044;-76
2022/05/13 05:27:11;;;;;;;18.60;7.78;;;;;;;15.78;69.29;99578.11;1739858;82;21223;-79
2022/05/13 05:29:38;;;;;;;19.27;7.28;;;;;;;15.88;69.05;99569.05;1705865;83;21500;-77
2022/05/13 05:32:06;;;;;;;21.35;7.67;;;;;;;15.94;68.62;99566.23;1739549;82;21096;-78
2022/05/13 05:34:35;;;;;;;13.93;5.85;;;;;;;16.00;68.46;99566.82;1706510;83;21104;-79
2022/05/13 05:37:07;;;;;;;13.00;5.30;;;;;;;16.11;67.70;99558.75;1703130;84;21002;-75
2022/05/13 05:39:41;;;;;;;7.33;5.10;;;;;;;16.18;66.77;99562.54;1772384;80;21051;-77
2022/05/13 05:42:10;;;;;;;13.08;4.62;;;;;;;16.26;65.56;99560.74;1722559;82;21031;-79
2022/05/13 05:44:40;;;;;;;8.88;2.83;;;;;;;16.31;65.43;99555.48;1777156;79;21015;-75
2022/05/13 05:47:08;;;;;;;9.28;2.05;;;;;;;16.41;63.70;99558.34;1735907;82;21537;-70
2022/05/13 05:49:38;;;;;;;5.25;2.52;;;;;;;16.37;61.20;99561.59;1773246;80;20996;-75
2022/05/13 05:52:09;;;;;;;5.80;2.92;;;;;;;16.30;60.86;99563.05;1757954;80;21794;-77
2022/05/13 05:57:34;;;;;;;6.97;3.12;;;;;;;16.43;60.84;99561.55;1785503;80;21514;-81
2022/05/13 06:00:11;;;;;;;6.92;2.58;;;;;;;16.49;60.77;99570.44;1777472;80;20997;-77
2022/05/13 06:02:42;;;;;;;6.20;2.67;;;;;;;16.54;60.54;99577.11;1773852;80;21068;-75
2022/05/13 06:05:12;;;;;;;7.42;2.42;;;;;;;16.58;59.95;99586.94;1723100;82;21100;-75
2022/05/13 06:07:49;;;;;;;6.35;2.45;;;;;;;16.60;60.21;99592.35;1777470;80;20996;-74
2022/05/13 06:10:22;;;;;;;3.40;2.58;;;;;;;16.58;58.72;99599.45;1734957;82;21021;-74
2022/05/13 06:12:50;;;;;;;8.75;2.33;;;;;;;16.54;59.22;99600.17;1777571;80;21598;-77
2022/05/13 06:15:16;;;;;;;9.65;2.72;;;;;;;16.60;58.80;99599.30;1736797;82;21576;-79
2022/05/13 06:17:53;;;;;;;5.33;2.00;;;;;;;16.69;58.59;99603.30;1777371;79;21514;-78
2022/05/13 06:20:25;;;;;;;4.00;1.98;;;;;;;16.76;57.63;99609.63;1752108;80;21068;-77
2022/05/13 06:22:52;;;;;;;9.00;2.22;;;;;;;16.79;57.52;99601.37;1740355;82;21057;-72
2022/05/13 06:25:24;;;;;;;6.28;1.85;;;;;;;16.78;55.80;99609.50;1756302;80;21016;-80
2022/05/13 06:27:53;;;;;;;6.60;2.10;;;;;;;16.75;55.29;99601.06;1740272;82;21018;-73
2022/05/13 06:30:28;;;;;;;5.40;2.37;;;;;;;16.76;55.67;99606.27;1777434;80;21070;-77
2022/05/13 06:32:56;;;;;;;10.18;2.15;;;;;;;16.75;55.27;99608.80;1772973;80;20993;-77
2022/05/13 06:35:24;;;;;;;10.45;2.30;;;;;;;16.72;55.05;99608.14;1728311;82;20984;-78
2022/05/13 06:37:56;;;;;;;6.90;1.95;;;;;;;16.76;55.58;99610.44;1777500;80;21040;-77
2022/05/13 06:40:26;;;;;;;4.90;2.00;;;;;;;16.88;56.01;99610.10;1704064;82;21472;-75
2022/05/13 06:42:56;;;;;;;8.95;1.92;;;;;;;16.99;55.08;99609.77;1740415;82;21720;-75
2022/05/13 06:45:23;;;;;;;11.22;2.27;;;;;;;17.07;54.58;99604.37;1777787;80;21047;-75
2022/05/13 06:47:57;;;;;;;5.40;2.05;;;;;;;17.10;53.33;99606.45;1740100;82;21484;-76
2022/05/13 06:50:25;;;;;;;4.90;1.87;;;;;;;17.00;52.85;99600.27;1734237;82;21163;-78
2022/05/13 06:52:52;;;;;;;6.00;1.50;;;;;;;16.98;53.39;99599.81;1709506;83;21533;-76
2022/05/13 06:55:20;;;;;;;2.40;1.12;;;;;;;17.05;54.17;99608.91;1718927;83;21057;-78
2022/05/13 06:57:51;;;;;;;5.22;1.65;;;;;;;17.14;52.11;99610.14;1740446;82;21067;-77
2022/05/13 07:00:19;;;;;;;6.75;2.25;;;;;;;17.15;52.89;99606.99;1709553;82;21084;-72
2022/05/13 07:02:46;;;;;;;6.65;2.20;;;;;;;17.27;53.44;99605.25;1698011;83;21029;-79
2022/05/13 07:05:20;;;;;;;3.37;1.80;;;;;;;17.37;53.26;99610.24;1704058;84;21085;-79
2022/05/13 07:07:48;;;;;;;4.67;2.13;;;;;;;17.41;52.74;99604.76;1701590;83;21573;-79
2022/05/13 07:10:20;;;;;;;8.83;2.72;;;;;;;17.49;52.70;99605.13;1717735;83;21039;-77
2022/05/13 07:12:58;;;;;;;9.30;2.52;;;;;;;17.60;52.96;99607.33;1678426;85;20978;-77
2022/05/13 07:15:35;;;;;;;6.53;1.70;;;;;;;17.67;52.32;99609.46;1698027;83;21045;-74
2022/05/13 07:18:10;;;;;;;3.35;1.45;;;;;;;17.76;52.17;99612.81;1706889;84;21064;-77
2022/05/13 07:20:39;;;;;;;3.30;1.42;;;;;;;17.83;51.49;99605.19;1739604;82;21110;-79
2022/05/13 07:23:10;;;;;;;4.03;1.98;;;;;;;17.80;51.86;99609.53;1756667;80;21000;-78
2022/05/13 07:25:43;;;;;;;;;;;;;;;17.87;51.46;99606.08;1780326;80;20988;-78
2022/05/13 07:28:13;;;;;;;8.03;2.98;;;;;;;17.98;51.52;99603.52;1776417;80;20157;-72
2022/05/13 07:30:46;;;;;;;6.85;1.20;;;;;;;18.05;51.21;99612.59;1774323;80;21027;-78
2022/05/13 07:33:24;;;;;;;2.95;1.37;;;;;;;18.11;50.50;99611.11;1773678;80;21040;-80
2022/05/13 07:35:53;;;;;;;1.40;0.75;;;;;;;18.15;50.16;99605.03;1777834;80;21003;-78
2022/05/13 07:38:20;;;;;;;8.78;1.20;;;;;;;18.20;50.38;99615.88;1739863;82;21829;-77
2022/05/13 07:43:37;;;;;;;8.13;1.40;;;;;;;18.14;50.94;99617.36;1740141;82;21060;-77
2022/05/13 07:46:07;;;;;;;1.75;0.90;;;;;;;18.15;51.31;99618.19;1775508;80;21098;-79
2022/05/13 07:48:43;;;;;;;1.60;0.82;;;;;;;18.17;49.89;99611.66;1720255;82;21049;-75
2022/05/13 07:51:14;;;;;;;5.97;1.45;;;;;;;18.18;49.97;99625.80;1775661;80;20985;-76
2022/05/13 07:53:45;;;;;;;1.95;0.93;;;;;;;18.16;49.40;99617.81;1773562;80;21071;-79
2022/05/13 07:56:21;;;;;;;4.30;1.27;;;;;;;18.15;49.44;99622.36;1739364;81;21064;-80
2022/05/13 07:58:53;;;;;;;3.75;1.00;;;;;;;18.12;48.90;99615.50;1778962;80;21795;-79
2022/05/13 08:01:24;;;;;;;4.03;0.70;;;;;;;18.11;49.37;99620.29;1730004;82;21084;-77
2022/05/13 08:03:52;;;;;;;4.87;0.82;;;;;;;18.04;49.26;99627.69;1778239;80;21048;-79
2022/05/13 08:06:27;;;;;;;9.70;0.98;;;;;;;18.02;49.16;99630.84;1736918;82;21033;-77
2022/05/13 08:08:58;;;;;;;1.72;0.70;;;;;;;17.96;48.96;99624.76;1777356;79;21472;-75
2022/05/13 08:11:30;;;;;;;5.28;1.22;;;;;;;17.88;49.27;99621.03;1772478;80;21909;-77
2022/05/13 08:13:57;;;;;;;4.22;1.05;;;;;;;17.81;48.88;99625.67;1739453;82;21037;-76
2022/05/13 08:16:34;;;;;;;4.95;1.30;;;;;;;17.79;49.17;99624.65;1751554;80;21033;-79
2022/05/13 08:19:04;;;;;;;7.75;1.10;;;;;;;17.83;50.45;99627.48;1777901;80;21095;-76
2022/05/13 08:21:31;;;;;;;4.47;0.90;;;;;;;17.99;51.03;99612.08;1740238;82;20989;-76
2022/05/13 08:24:01;;;;;;;5.25;1.60;;;;;;;18.18;50.71;99609.07;1777894;80;21035;-76
2022/05/13 08:26:38;;;;;;;3.83;1.00;;;;;;;18.28;50.29;99610.44;1776794;80;21008;-78
2022/05/13 08:29:06;;;;;;;5.30;1.05;;;;;;;18.23;48.13;99608.19;1777457;80;21063;-78
2022/05/13 08:31:40;;;;;;;2.22;0.98;;;;;;;18.16;48.28;99609.45;1723080;82;21524;-78
2022/05/13 08:34:09;;;;;;;3.25;1.35;;;;;;;18.16;49.67;99604.45;1736409;82;21099;-80
2022/05/13 08:36:43;;;;;;;3.42;0.80;;;;;;;18.19;48.50;99604.52;1778008;80;20984;-74
2022/05/13 08:39:10;;;;;;;6.12;1.15;;;;;;;18.09;48.20;99598.13;1740134;82;21012;-76
2022/05/13 08:42:17;;;;;;;4.12;1.47;;;;;;;18.07;49.15;99602.67;1739398;82;21061;-79
2022/05/13 08:44:55;;;;;;;5.15;1.57;;;;;;;18.11;48.92;99613.90;1773613;80;21011;-75
2022/05/13 08:47:27;;;;;;;4.87;1.30;;;;;;;18.10;48.76;99614.48;1777284;80;21083;-74
2022/05/13 08:50:28;;;;;;;4.03;1.82;;;;;;;18.11;48.23;99615.30;1733489;82;21486;-80
2022/05/13 08:53:40;;;;;;;4.10;1.47;;;;;;;18.11;48.22;99614.71;1774811;80;21075;-78
2022/05/13 08:56:11;;;;;;;8.85;2.33;;;;;;;18.04;48.38;99610.39;1715007;83;20993;-74
2022/05/13 08:59:06;;;;;;;5.15;2.25;;;;;;;17.96;48.51;99608.03;1691134;84;21001;-75
2022/05/13 09:01:49;;;;;;;6.45;1.95;;;;;;;18.00;50.07;99603.92;1777753;80;21012;-76
2022/05/13 09:04:34;;;;;;;7.67;2.60;;;;;;;18.13;49.33;99607.41;1775337;80;21824;-77
2022/05/13 09:07:08;;;;;;;6.65;2.15;;;;;;;18.12;48.82;99602.38;1776059;80;21071;-74
2022/05/13 09:09:41;;;;;;;6.05;1.62;;;;;;;18.06;49.31;99604.44;1775015;80;21543;-74
2022/05/13 09:12:45;;;;;;;4.05;1.60;;;;;;;18.19;49.54;99602.31;1731547;82;21013;-77
2022/05/13 09:15:44;;;;;;;2.98;1.65;;;;;;;18.30;49.12;99601.12;1777776;80;21141;-78
2022/05/13 09:18:34;;;;;;;6.40;1.50;;;;;;;18.37;47.65;99590.09;1774130;80;21122;-78
2022/05/13 09:21:17;;;;;;;4.80;2.27;;;;;;;18.41;47.87;99589.55;1737397;82;21048;-79
2022/05/13 09:23:53;;;;;;;3.27;1.45;;;;;;;18.53;47.88;99578.80;1776369;80;21011;-77
2022/05/13 09:26:26;;;;;;;7.72;1.70;;;;;;;18.66;48.08;99582.80;1739486;82;21060;-79
2022/05/13 09:29:11;;;;;;;5.58;2.02;;;;;;;18.83;49.02;99587.05;1777799;80;20981;-71
2022/05/13 09:32:04;;;;;;;5.65;1.98;;;;;;;19.07;48.92;99591.98;1775275;80;21106;-78
2022/05/13 09:34:44;;;;;;;7.53;1.17;;;;;;;19.29;48.67;99590.91;1730980;82;21573;-73
2022/05/13 09:37:21;;;;;;;2.00;1.00;;;;;;;19.42;47.94;99583.09;1777522;80;21016;-80
2022/05/13 09:40:09;;;;;;;5.85;1.30;;;;;;;19.42;47.05;99579.72;1756474;80;20988;-78
2022/05/13 09:42:44;;;;;;;4.42;1.42;;;;;;;19.38;46.31;99580.25;1730024;82;21631;-76
2022/05/13 09:45:25;;;;;;;3.45;1.05;;;;;;;19.27;45.79;99581.52;1777689;80;21294;-77
2022/05/13 09:48:10;;;;;;;4.53;0.82;;;;;;;19.16;46.25;99583.34;1773048;80;21016;-78
2022/05/13 09:50:51;;;;;;;1.25;0.90;;;;;;;19.11;47.15;99578.11;1770364;80;21044;-78
2022/05/13 09:53:29;;;;;;;9.83;1.00;;;;;;;19.13;47.12;99581.30;1738159;82;21069;-78
2022/05/13 09:56:05;;;;;;;13.88;1.07;;;;;;;19.16;46.88;99575.78;1774516;80;21000;-81
2022/05/13 09:58:37;;;;;;;1.52;0.85;;;;;;;19.17;46.57;99571.00;1740850;82;21525;-79
2022/05/13 10:01:30;;;;;;;6.50;0.80;;;;;;;19.21;47.31;99576.03;1777038;80;21548;-77
2022/05/13 10:04:14;;;;;;;3.25;0.93;;;;;;;19.31;46.27;99571.80;1735345;82;21012;-79
2022/05/13 10:06:47;;;;;;;2.33;0.93;;;;;;;19.38;47.01;99564.89;1754551;80;21020;-76
2022/05/13 10:15:57;;;;;;;4.67;0.88;;;;;;;19.38;44.92;99566.90;1777705;80;21501;-78
2022/05/13 10:18:30;;;;;;;3.40;0.90;;;;;;;19.44;45.67;99564.78;1709276;83;21050;-72
2022/05/13 10:21:11;;;;;;;9.50;0.80;;;;;;;19.51;45.46;99557.66;1706579;83;21031;-77
2022/05/13 10:23:57;;;;;;;12.85;1.02;;;;;;;19.55;43.63;99562.72;1703376;83;21584;-79
2022/05/13 10:26:31;;;;;;;8.70;1.00;;;;;;;19.54;42.85;99563.89;1707285;82;21148;-78
2022/05/13 10:29:09;;;;;;;4.72;0.95;;;;;;;19.55;42.68;99559.92;1741451;82;21031;-71
2022/05/13 10:31:44;;;;;;;4.47;0.82;;;;;;;19.56;42.55;99547.55;1735717;82;21040;-78
2022/05/13 10:34:40;;;;;;;3.55;0.70;;;;;;;19.58;43.13;99547.98;1732587;82;21035;-77
2022/05/13 10:37:20;;;;;;;6.15;0.93;;;;;;;19.57;42.79;99544.95;1733183;82;21131;-81
2022/05/13 10:40:02;;;;;;;5.10;0.80;;;;;;;19.57;42.21;99547.75;1751109;81;21152;-79
2022/05/13 10:42:44;;;;;;;7.35;1.30;;;;;;;19.59;41.68;99543.98;1733608;82;21004;-78
2022/05/13 10:45:24;;;;;;;1.32;0.78;;;;;;;19.53;42.48;99545.52;1732719;82;21040;-75
2022/05/13 10:48:11;;;;;;;2.70;0.70;;;;;;;19.61;42.61;99543.02;1734435;82;21005;-75
2022/05/13 10:51:08;;;;;;;6.12;0.68;;;;;;;19.75;42.31;99528.41;1754606;81;21012;-77
2022/05/13 10:54:28;;;;;;;2.17;0.70;;;;;;;19.91;42.40;99540.73;1734345;82;21354;-74
2022/05/13 10:57:31;;;;;;;3.42;0.80;;;;;;;19.96;42.41;99535.39;1644403;87;21148;-81
2022/05/13 11:00:22;;;;;;;5.42;0.72;;;;;;;19.95;41.79;99529.02;1642960;84;21078;-74
2022/05/13 11:03:05;;;;;;;2.90;0.65;;;;;;;19.98;42.50;99523.84;1642239;87;21070;-75
2022/05/13 11:05:57;;;;;;;8.58;1.07;;;;;;;20.08;40.81;99518.95;1713208;82;20996;-77
2022/05/13 11:08:35;;;;;;;3.17;0.57;;;;;;;20.16;40.94;99514.25;1734203;82;21652;-79
2022/05/13 11:11:35;;;;;;;5.47;0.85;;;;;;;20.22;41.46;99519.69;1730615;82;21004;-76
2022/05/13 11:14:37;;;;;;;8.43;0.82;;;;;;;20.25;39.70;99516.11;1727341;82;21511;-74
2022/05/13 11:17:30;;;;;;;3.22;0.70;;;;;;;20.14;38.62;99499.84;1734650;82;21035;-81
2022/05/13 11:20:48;;;;;;;2.33;0.85;;;;;;;20.01;40.27;99495.89;1748276;81;21032;-80
2022/05/13 11:25:54;;;;;;;3.27;0.80;;;;;;;20.04;40.81;99496.58;1734267;82;21016;-77
2022/05/13 11:26:32;;;;;;;9.38;1.20;;;;;;;20.13;40.52;99499.02;1735155;82;21599;-76
2022/05/13 11:29:16;;;;;;;1.98;0.82;;;;;;;20.13;40.67;99492.03;1732530;82;21040;-76
2022/05/13 11:32:15;;;;;;;2.10;0.70;;;;;;;20.08;39.96;99490.20;1732344;82;21192;-77
2022/05/13 11:35:13;;;;;;;7.15;0.95;;;;;;;20.02;39.97;99484.13;1729971;82;20976;-78
2022/05/13 11:37:48;;;;;;;2.42;1.05;;;;;;;20.02;40.30;99484.94;1731983;82;21471;-79
2022/05/13 11:40:53;;;;;;;5.23;0.80;;;;;;;20.04;39.50;99478.98;1735060;81;21019;-76
2022/05/13 11:43:49;;;;;;;2.87;0.90;;;;;;;20.05;39.49;99481.98;1730235;82;21889;-76
2022/05/13 11:46:50;;;;;;;6.20;1.20;;;;;;;20.05;39.76;99484.19;1733946;82;21017;-78
2022/05/13 11:49:29;;;;;;;6.80;1.17;;;;;;;20.14;39.79;99478.86;1734833;81;21560;-76
2022/05/13 11:52:05;;;;;;;5.62;0.80;;;;;;;20.16;39.90;99471.68;1734078;82;22063;-78
2022/05/13 11:54:36;;;;;;;4.37;0.90;;;;;;;20.14;39.83;99485.27;1731892;82;21543;-76
2022/05/13 11:57:24;;;;;;;2.90;0.90;;;;;;;20.13;39.03;99479.45;1734499;82;20983;-75
2022/05/13 12:00:42;;;;;;;5.25;0.98;;;;;;;20.13;39.01;99476.66;1728769;82;21068;-79
2022/05/13 12:03:16;;;;;;;4.58;1.45;;;;;;;20.18;39.81;99479.09;1698307;84;21078;-77
2022/05/13 12:06:09;;;;;;;2.33;0.65;;;;;;;20.28;39.73;99475.39;1650000;85;21140;-80
2022/05/13 12:08:50;;;;;;;8.55;0.95;;;;;;;20.26;38.87;99479.16;1675750;85;21053;-77
2022/05/13 12:11:37;;;;;;;5.55;0.85;;;;;;;20.23;38.43;99480.75;1734962;82;21520;-74
2022/05/13 12:14:44;;;;;;;4.50;0.80;;;;;;;20.16;38.94;99472.30;1651807;82;21024;-80
2022/05/13 12:18:02;;;;;;;5.37;1.05;;;;;;;20.08;39.30;99465.05;1736948;82;20987;-79
2022/05/13 12:21:01;;;;;;;2.52;0.90;;;;;;;20.14;39.20;99462.09;1738170;82;21012;-77
2022/05/13 12:23:41;;;;;;;5.33;0.90;;;;;;;20.20;38.34;99463.32;1677447;85;21053;-78
2022/05/13 12:26:11;;;;;;;1.85;0.80;;;;;;;20.25;38.67;99453.17;1735154;82;21096;-77